X  Fermer Données météorologiques d'aviation de Metar     LFQQ Lille-Lesquin Airport
Température
2°C Température
1°C Point de rosée
93% Humidité



Vitesse
8 KM/H
5 MPH
2 M/S
4 KTS



250°
OSO
Conditions actuelles

Claire Claire
Pression 1038.91 (hPa) - 30.68 (inHg)
Visibilité 3.7 (mile) - 6 (km)
Aéroport
Code de l'aéroport LFQQ

Emplacement: Lille-Lesquin Airport
Distance: 15 (km)

Metar:
LFQQ 270130Z AUTO 25004KT 6000 NSC 02/01 Q1039 NOSIG

Temps: 27-02-2021 02:30 CET